Time;durP1;ratioP1;P1;durP2;ratioP2;P2;SDS_P1;SDS_P2;PMS_P1;PMS_P2;Temp;Humidity;BMP_temperature;BMP_pressure;BME280_temperature;BME280_humidity;BME280_pressure;Samples;Min_cycle;Max_cycle;Signal;HPM_P1;HPM_P2
2021/01/26 00:01:09;;;;;;;3.78;2.72;;;19.50;43.20;;;;;;5066405;28;20032;-63
2021/01/26 00:03:35;;;;;;;5.43;2.97;;;19.50;43.10;;;;;;5066179;28;20037;-64
2021/01/26 00:06:00;;;;;;;3.20;2.58;;;19.50;43.10;;;;;;5055331;28;20123;-61
2021/01/26 00:08:26;;;;;;;3.20;2.55;;;19.50;43.00;;;;;;5065320;28;20477;-64
2021/01/26 00:10:51;;;;;;;2.30;2.10;;;19.50;43.00;;;;;;5066737;28;20494;-61
2021/01/26 00:13:17;;;;;;;2.97;2.67;;;19.50;43.30;;;;;;5066002;28;20024;-64
2021/01/26 00:15:43;;;;;;;2.40;2.20;;;19.50;42.90;;;;;;5066196;28;20097;-64
2021/01/26 00:18:08;;;;;;;3.38;2.72;;;19.60;42.90;;;;;;5066368;28;20078;-63
2021/01/26 00:20:34;;;;;;;2.75;2.20;;;19.60;42.90;;;;;;5064965;28;20427;-63
2021/01/26 00:22:59;;;;;;;2.58;2.33;;;19.60;42.90;;;;;;5047772;28;20074;-64
2021/01/26 00:25:26;;;;;;;3.88;3.20;;;19.60;42.80;;;;;;5066765;28;20119;-64
2021/01/26 00:27:52;;;;;;;3.85;2.63;;;19.50;42.90;;;;;;5065859;28;20130;-64
2021/01/26 00:30:20;;;;;;;3.03;1.98;;;19.60;42.90;;;;;;5066486;28;20447;-63
2021/01/26 00:32:46;;;;;;;2.58;2.05;;;19.60;42.90;;;;;;5066306;28;20425;-63
2021/01/26 00:35:12;;;;;;;2.63;2.13;;;19.60;42.80;;;;;;5065947;28;20044;-64
2021/01/26 00:37:38;;;;;;;4.43;2.50;;;19.60;42.70;;;;;;5065736;28;20032;-64
2021/01/26 00:40:04;;;;;;;4.15;2.28;;;19.60;42.70;;;;;;5065611;28;20033;-63
2021/01/26 00:42:30;;;;;;;4.10;2.42;;;19.50;42.60;;;;;;5065975;28;20057;-63
2021/01/26 00:44:55;;;;;;;2.97;2.30;;;19.50;42.70;;;;;;5066546;28;20078;-64
2021/01/26 00:47:21;;;;;;;2.42;2.15;;;19.60;42.70;;;;;;5065916;28;20029;-63
2021/01/26 00:49:46;;;;;;;2.55;2.13;;;19.50;42.80;;;;;;5065877;28;20033;-63
2021/01/26 00:52:12;;;;;;;2.40;2.17;;;19.50;42.70;;;;;;5065438;28;20029;-62
2021/01/26 00:54:37;;;;;;;2.63;2.08;;;19.50;42.70;;;;;;5065680;28;20098;-63
2021/01/26 00:57:04;;;;;;;3.30;2.25;;;19.50;42.70;;;;;;5067778;28;20560;-63
2021/01/26 00:59:30;;;;;;;2.90;2.00;;;19.50;42.70;;;;;;5066627;28;20032;-63
2021/01/26 01:01:55;;;;;;;2.72;2.05;;;19.50;42.70;;;;;;5066989;28;20041;-63
2021/01/26 01:04:21;;;;;;;2.50;2.10;;;19.50;42.70;;;;;;5065782;28;20406;-63
2021/01/26 01:06:46;;;;;;;3.03;2.33;;;19.40;42.70;;;;;;5065496;28;20038;-64
2021/01/26 01:09:12;;;;;;;2.35;2.00;;;19.40;42.70;;;;;;5065822;28;20032;-63
2021/01/26 01:11:38;;;;;;;3.58;1.88;;;19.40;42.70;;;;;;5047397;28;20392;-63
2021/01/26 01:14:04;;;;;;;3.00;2.22;;;19.40;42.70;;;;;;5058168;28;20036;-64
2021/01/26 01:16:29;;;;;;;3.55;2.38;;;19.40;42.70;;;;;;5066342;28;20514;-63
2021/01/26 01:18:55;;;;;;;3.53;1.95;;;19.40;42.80;;;;;;5065461;28;20021;-64
2021/01/26 01:21:20;;;;;;;2.50;2.05;;;19.40;42.80;;;;;;5065016;28;20097;-64
2021/01/26 01:23:46;;;;;;;2.80;2.00;;;19.30;42.80;;;;;;5065604;28;20500;-63
2021/01/26 01:26:11;;;;;;;2.33;1.95;;;19.40;42.80;;;;;;5064322;28;20029;-63
2021/01/26 01:28:37;;;;;;;2.20;1.90;;;19.40;42.80;;;;;;5065569;28;20036;-64
2021/01/26 01:31:03;;;;;;;2.83;2.10;;;19.40;42.70;;;;;;5030557;28;20158;-64
2021/01/26 01:33:28;;;;;;;2.03;1.70;;;19.30;42.80;;;;;;5065690;28;20033;-63
2021/01/26 01:35:53;;;;;;;3.33;1.70;;;19.30;43.30;;;;;;5064529;28;20042;-63
2021/01/26 01:38:19;;;;;;;3.17;2.28;;;19.30;42.70;;;;;;5065057;28;20632;-63
2021/01/26 01:40:45;;;;;;;2.10;1.80;;;19.30;42.70;;;;;;5065171;28;20033;-63
2021/01/26 01:43:10;;;;;;;2.30;1.70;;;19.30;42.60;;;;;;5065068;28;20710;-63
2021/01/26 01:45:35;;;;;;;2.28;2.05;;;19.30;42.70;;;;;;5064702;28;20040;-63
2021/01/26 01:48:21;;;;;;;1.83;1.60;;;19.30;42.70;;;;;;5065370;28;20154;-61
2021/01/26 01:51:06;;;;;;;2.08;1.88;;;19.30;42.70;;;;;;5064097;28;20115;-63
2021/01/26 01:53:39;;;;;;;2.33;2.10;;;19.30;42.80;;;;;;5064227;28;20484;-60
2021/01/26 01:56:10;;;;;;;1.88;1.60;;;19.30;42.70;;;;;;5046426;28;20645;-64
2021/01/26 01:58:39;;;;;;;2.10;1.60;;;19.30;42.60;;;;;;5047460;28;20495;-64
2021/01/26 02:01:10;;;;;;;2.72;1.88;;;19.30;42.70;;;;;;5045710;28;20132;-63
2021/01/26 02:03:38;;;;;;;2.15;1.58;;;19.30;42.60;;;;;;5046446;28;20502;-63
2021/01/26 02:06:04;;;;;;;2.58;2.10;;;19.20;42.60;;;;;;5046506;28;20047;-64
2021/01/26 02:08:35;;;;;;;1.70;1.42;;;19.20;42.70;;;;;;5045938;28;21446;-62
2021/01/26 02:11:00;;;;;;;2.53;1.85;;;19.20;42.70;;;;;;5030327;28;20048;-63
2021/01/26 02:13:26;;;;;;;3.00;1.90;;;19.20;42.90;;;;;;5064056;28;20028;-62
2021/01/26 02:15:52;;;;;;;2.55;1.90;;;19.20;42.90;;;;;;5065071;28;20029;-64
2021/01/26 02:18:40;;;;;;;2.58;1.65;;;19.10;42.90;;;;;;5046433;28;20426;-63
2021/01/26 02:21:12;;;;;;;3.70;1.88;;;19.10;43.00;;;;;;5048344;28;20037;-63
2021/01/26 02:23:56;;;;;;;2.95;1.50;;;19.10;43.00;;;;;;5064062;28;20542;-63
2021/01/26 02:26:41;;;;;;;1.95;1.45;;;19.00;43.00;;;;;;5063143;28;20041;-64
2021/01/26 02:29:23;;;;;;;3.35;1.70;;;19.00;43.00;;;;;;5040432;28;20393;-62
2021/01/26 02:32:09;;;;;;;3.08;1.67;;;19.00;43.10;;;;;;5046538;28;20036;-63
2021/01/26 02:34:52;;;;;;;2.83;1.60;;;19.00;43.10;;;;;;5046555;28;20040;-63
2021/01/26 02:37:30;;;;;;;2.08;1.80;;;18.90;43.00;;;;;;5040081;28;20036;-63
2021/01/26 02:40:16;;;;;;;2.67;1.85;;;18.90;43.20;;;;;;5039516;28;20025;-63
2021/01/26 02:43:03;;;;;;;1.92;1.60;;;18.90;43.20;;;;;;5045481;28;20734;-64
2021/01/26 02:45:52;;;;;;;3.42;2.00;;;18.80;43.10;;;;;;5063207;28;20064;-59
2021/01/26 02:48:37;;;;;;;2.10;1.70;;;18.90;43.10;;;;;;5038772;28;20283;-64
2021/01/26 02:51:10;;;;;;;2.88;1.52;;;18.90;43.20;;;;;;5040193;28;20044;-64
2021/01/26 02:53:55;;;;;;;1.73;1.52;;;18.90;43.10;;;;;;5064159;28;20045;-63
2021/01/26 02:56:40;;;;;;;2.03;1.42;;;18.90;43.10;;;;;;5045411;28;20036;-63
2021/01/26 02:59:28;;;;;;;2.90;1.57;;;18.90;43.20;;;;;;5039651;28;20492;-64
2021/01/26 03:02:03;;;;;;;1.88;1.50;;;18.90;43.20;;;;;;5045371;28;20055;-62
2021/01/26 03:04:34;;;;;;;2.10;1.40;;;18.90;43.20;;;;;;5045760;28;20047;-64
2021/01/26 03:07:00;;;;;;;1.98;1.63;;;18.90;43.20;;;;;;5045853;28;20616;-64
2021/01/26 03:09:35;;;;;;;2.50;1.30;;;18.90;43.10;;;;;;5046165;28;20032;-63
2021/01/26 03:12:10;;;;;;;1.50;1.15;;;18.90;43.10;;;;;;5045710;28;20056;-64
2021/01/26 03:14:41;;;;;;;2.08;1.70;;;19.00;43.20;;;;;;5045210;28;20472;-63
2021/01/26 03:17:18;;;;;;;1.92;1.48;;;19.00;43.10;;;;;;5038053;28;21649;-63
2021/01/26 03:19:46;;;;;;;2.50;1.20;;;19.00;43.20;;;;;;5028961;28;20750;-63
2021/01/26 03:22:12;;;;;;;1.75;1.58;;;19.00;43.20;;;;;;5046175;28;20056;-64
2021/01/26 03:24:39;;;;;;;2.38;1.38;;;19.00;43.10;;;;;;5029458;28;20040;-63
2021/01/26 03:27:09;;;;;;;2.15;1.40;;;19.10;43.20;;;;;;5035647;28;20041;-63
2021/01/26 03:29:35;;;;;;;2.30;1.40;;;19.20;43.20;;;;;;5056586;28;20032;-61
2021/01/26 03:32:02;;;;;;;1.95;1.40;;;19.20;43.10;;;;;;5038088;28;20039;-64
2021/01/26 03:34:28;;;;;;;2.90;1.52;;;19.20;43.10;;;;;;5029228;28;20044;-61
2021/01/26 03:36:53;;;;;;;2.08;1.67;;;19.20;43.10;;;;;;5063602;28;20044;-61
2021/01/26 03:39:19;;;;;;;1.35;1.10;;;19.30;43.00;;;;;;5045920;28;20025;-63
2021/01/26 03:41:45;;;;;;;1.38;1.23;;;19.30;42.90;;;;;;5063236;28;20122;-64
2021/01/26 03:44:10;;;;;;;1.90;1.55;;;19.30;42.90;;;;;;5046238;28;20036;-63
2021/01/26 03:46:46;;;;;;;2.42;1.50;;;19.30;42.80;;;;;;5028278;28;20431;-62
2021/01/26 03:49:22;;;;;;;2.17;1.23;;;19.40;42.80;;;;;;5042882;28;20029;-62
2021/01/26 03:52:25;;;;;;;2.53;1.48;;;19.40;42.70;;;;;;5027852;28;20271;-64
2021/01/26 03:55:35;;;;;;;1.52;1.42;;;19.40;42.70;;;;;;5062250;28;20036;-62
2021/01/26 03:58:22;;;;;;;2.20;1.58;;;19.50;42.50;;;;;;5051557;28;20533;-61
2021/01/26 04:00:57;;;;;;;1.45;1.27;;;19.50;42.50;;;;;;5044708;28;20039;-60
2021/01/26 04:04:00;;;;;;;1.85;1.60;;;19.50;42.40;;;;;;5045890;28;20032;-63
2021/01/26 04:06:29;;;;;;;1.50;1.40;;;19.50;42.50;;;;;;5043601;28;20119;-63
2021/01/26 04:08:56;;;;;;;1.70;1.40;;;19.60;42.30;;;;;;5043957;28;20784;-64
2021/01/26 04:11:30;;;;;;;1.60;1.50;;;19.60;42.20;;;;;;5028582;28;20600;-63
2021/01/26 04:14:05;;;;;;;2.00;1.55;;;19.60;42.20;;;;;;5029547;28;20042;-63
2021/01/26 04:16:33;;;;;;;1.60;1.45;;;19.50;42.00;;;;;;5044195;28;20032;-64
2021/01/26 04:19:00;;;;;;;1.48;1.38;;;19.50;42.00;;;;;;5045243;28;20033;-63
2021/01/26 04:21:25;;;;;;;1.58;1.35;;;19.50;42.10;;;;;;5028786;28;20032;-63
2021/01/26 04:23:55;;;;;;;1.95;1.75;;;19.50;42.00;;;;;;5029323;28;20028;-62
2021/01/26 04:26:20;;;;;;;2.22;1.23;;;19.50;42.10;;;;;;5066723;28;20033;-63
2021/01/26 04:28:49;;;;;;;1.88;1.23;;;19.50;42.00;;;;;;5049572;28;20028;-64
2021/01/26 04:31:14;;;;;;;2.67;1.88;;;19.40;42.50;;;;;;5066411;28;20059;-63
2021/01/26 04:33:40;;;;;;;2.50;1.52;;;19.50;42.10;;;;;;5066906;28;20052;-63
2021/01/26 04:36:06;;;;;;;1.50;1.40;;;19.40;41.90;;;;;;5048008;28;20555;-62
2021/01/26 04:38:32;;;;;;;2.22;1.35;;;19.40;42.00;;;;;;5067067;28;20651;-63
2021/01/26 04:41:05;;;;;;;1.13;1.02;;;19.40;41.90;;;;;;5066362;28;20035;-63
2021/01/26 04:43:55;;;;;;;1.95;1.20;;;19.40;41.90;;;;;;5049142;28;20041;-63
2021/01/26 04:46:44;;;;;;;2.15;1.40;;;19.30;41.90;;;;;;5066196;28;20032;-63
2021/01/26 04:49:34;;;;;;;1.42;1.33;;;19.30;42.00;;;;;;5043633;28;20033;-63
2021/01/26 04:52:27;;;;;;;1.48;1.33;;;19.30;42.00;;;;;;5032031;28;21316;-63
2021/01/26 04:55:21;;;;;;;1.83;1.40;;;19.30;42.00;;;;;;5050629;28;20040;-63
2021/01/26 04:58:09;;;;;;;1.20;1.10;;;19.30;42.10;;;;;;5047005;28;21686;-64
2021/01/26 05:00:37;;;;;;;1.55;1.38;;;19.20;42.10;;;;;;5042533;28;20041;-62
2021/01/26 05:03:14;;;;;;;1.67;1.50;;;19.20;42.10;;;;;;5047895;28;20036;-63
2021/01/26 05:05:42;;;;;;;2.38;1.35;;;19.20;42.10;;;;;;5031684;28;20036;-63
2021/01/26 05:08:37;;;;;;;1.42;1.10;;;19.20;42.10;;;;;;5031191;28;20522;-64
2021/01/26 05:11:11;;;;;;;1.73;1.42;;;19.20;42.20;;;;;;5056865;28;20116;-64
2021/01/26 05:13:41;;;;;;;1.75;1.20;;;19.20;42.20;;;;;;5047137;28;20089;-65
2021/01/26 05:16:10;;;;;;;1.23;1.13;;;19.20;42.20;;;;;;5048074;28;20807;-64
2021/01/26 05:18:48;;;;;;;2.25;1.25;;;19.10;42.20;;;;;;5048179;28;20036;-63
2021/01/26 05:21:33;;;;;;;2.03;1.27;;;19.10;42.20;;;;;;5065853;28;20052;-63
2021/01/26 05:24:14;;;;;;;2.58;1.95;;;19.10;42.30;;;;;;5048918;28;20074;-64
2021/01/26 05:26:40;;;;;;;4.10;1.92;;;19.10;42.30;;;;;;5048019;28;20055;-64
2021/01/26 05:29:05;;;;;;;5.00;1.98;;;19.10;42.30;;;;;;5064984;28;20032;-64
2021/01/26 05:31:31;;;;;;;4.13;2.30;;;19.00;42.30;;;;;;5065625;28;20463;-65
2021/01/26 05:34:08;;;;;;;4.95;2.15;;;19.00;42.20;;;;;;5047193;28;20028;-64
2021/01/26 05:36:34;;;;;;;3.58;2.22;;;19.00;42.30;;;;;;5064549;28;20501;-64
2021/01/26 05:39:00;;;;;;;3.72;2.17;;;19.00;42.40;;;;;;5047180;28;20407;-65
2021/01/26 05:41:25;;;;;;;3.55;1.80;;;19.00;42.50;;;;;;5064397;28;20032;-62
2021/01/26 05:43:52;;;;;;;5.43;2.50;;;19.00;42.60;;;;;;5047348;28;20106;-65
2021/01/26 05:46:57;;;;;;;3.78;2.40;;;19.00;42.50;;;;;;5047027;28;20036;-63
2021/01/26 05:49:33;;;;;;;5.93;2.30;;;19.00;42.60;;;;;;4959067;28;20216;-64
2021/01/26 05:51:58;;;;;;;3.17;2.35;;;19.00;42.60;;;;;;4963557;28;20027;-65
2021/01/26 05:54:24;;;;;;;5.97;2.80;;;19.00;42.60;;;;;;4996024;28;20032;-65
2021/01/26 05:56:52;;;;;;;4.35;2.42;;;19.00;42.60;;;;;;5046691;28;20489;-65
2021/01/26 05:59:32;;;;;;;4.18;2.65;;;18.90;42.60;;;;;;5047663;28;20032;-64
2021/01/26 06:02:13;;;;;;;3.13;2.58;;;18.90;42.60;;;;;;5064582;28;20032;-64
2021/01/26 06:04:39;;;;;;;4.18;2.55;;;18.90;42.60;;;;;;5058291;28;20463;-65
2021/01/26 06:07:04;;;;;;;5.80;3.50;;;18.90;42.60;;;;;;5064237;28;20032;-64
2021/01/26 06:09:37;;;;;;;6.05;2.80;;;18.90;42.70;;;;;;5064590;28;20032;-63
2021/01/26 06:12:24;;;;;;;3.92;3.03;;;18.90;42.80;;;;;;5064498;28;20028;-63
2021/01/26 06:14:55;;;;;;;6.55;3.80;;;18.90;42.80;;;;;;5065069;28;20502;-64
2021/01/26 06:17:24;;;;;;;12.20;4.97;;;18.90;42.90;;;;;;5063748;28;20032;-64
2021/01/26 06:20:12;;;;;;;8.73;4.63;;;18.90;43.00;;;;;;5064822;28;20042;-64
2021/01/26 06:22:37;;;;;;;13.10;5.75;;;18.90;43.00;;;;;;5064458;28;20035;-64
2021/01/26 06:25:24;;;;;;;12.00;6.22;;;18.90;43.00;;;;;;5064155;28;20025;-63
2021/01/26 06:28:08;;;;;;;11.60;7.43;;;18.80;43.00;;;;;;5045788;28;20115;-64
2021/01/26 06:30:52;;;;;;;14.15;6.95;;;18.80;43.10;;;;;;5045943;28;20652;-64
2021/01/26 06:33:27;;;;;;;20.02;8.68;;;18.80;43.20;;;;;;5063845;28;20028;-64
2021/01/26 06:36:21;;;;;;;15.95;7.85;;;18.80;43.20;;;;;;5063796;28;20040;-64
2021/01/26 06:39:18;;;;;;;14.45;7.43;;;18.70;43.20;;;;;;5048979;28;20037;-64
2021/01/26 06:41:50;;;;;;;15.07;8.48;;;18.70;43.30;;;;;;5048942;28;20040;-64
2021/01/26 06:44:47;;;;;;;19.70;9.30;;;18.70;43.30;;;;;;5064540;28;20116;-64
2021/01/26 06:47:44;;;;;;;15.27;9.18;;;18.60;43.30;;;;;;5063733;28;20033;-64
2021/01/26 06:50:31;;;;;;;18.63;9.25;;;18.60;43.30;;;;;;5020707;28;20653;-64
2021/01/26 06:53:03;;;;;;;19.95;10.05;;;18.60;43.40;;;;;;5059918;28;20040;-64
2021/01/26 06:55:42;;;;;;;17.02;9.43;;;18.60;43.50;;;;;;5046339;28;20040;-64
2021/01/26 06:58:32;;;;;;;23.10;10.27;;;18.50;43.40;;;;;;5030794;28;20035;-64
2021/01/26 07:01:04;;;;;;;22.75;9.63;;;18.50;43.40;;;;;;5064495;28;20032;-64
2021/01/26 07:03:47;;;;;;;22.63;9.70;;;18.50;43.40;;;;;;5030104;28;20790;-64
2021/01/26 07:06:20;;;;;;;20.70;10.10;;;18.50;43.50;;;;;;5063536;28;21378;-63
2021/01/26 07:09:06;;;;;;;20.23;10.15;;;18.50;43.50;;;;;;5028459;28;20506;-64
2021/01/26 07:11:54;;;;;;;21.45;9.80;;;18.50;43.50;;;;;;5031392;28;20082;-64
2021/01/26 07:14:44;;;;;;;25.98;10.48;;;18.50;43.50;;;;;;5049364;28;20035;-64
2021/01/26 07:17:09;;;;;;;20.48;9.48;;;18.50;43.60;;;;;;5046056;28;20032;-63
2021/01/26 07:20:00;;;;;;;20.23;9.73;;;18.50;43.60;;;;;;5030414;28;20036;-63
2021/01/26 07:22:35;;;;;;;21.40;10.07;;;18.50;43.60;;;;;;5030592;28;20119;-63
2021/01/26 07:25:23;;;;;;;21.20;9.35;;;18.50;43.60;;;;;;5064166;28;20029;-64
2021/01/26 07:28:01;;;;;;;24.42;9.63;;;18.50;43.60;;;;;;5064437;28;20033;-62
2021/01/26 07:30:30;;;;;;;18.95;9.73;;;18.50;43.60;;;;;;5064985;28;20025;-62
2021/01/26 07:33:09;;;;;;;19.40;9.98;;;18.60;43.70;;;;;;5030851;28;20430;-63
2021/01/26 07:36:09;;;;;;;21.80;9.20;;;18.60;43.60;;;;;;5029483;28;20036;-63
2021/01/26 07:38:37;;;;;;;22.98;9.90;;;18.60;43.60;;;;;;5031273;28;20389;-62
2021/01/26 07:41:29;;;;;;;18.45;9.00;;;18.60;43.70;;;;;;5047269;28;20036;-64
2021/01/26 07:44:40;;;;;;;18.95;9.88;;;18.60;43.70;;;;;;5049286;28;20105;-63
2021/01/26 07:47:23;;;;;;;22.45;9.88;;;18.60;43.70;;;;;;4981586;28;20461;-65
2021/01/26 07:49:55;;;;;;;18.60;9.27;;;18.70;43.90;;;;;;5046123;28;20035;-64
2021/01/26 07:52:20;;;;;;;17.92;9.15;;;18.70;43.80;;;;;;5064098;28;20029;-59
2021/01/26 07:55:09;;;;;;;17.63;7.80;;;18.70;43.90;;;;;;5046314;28;20032;-63
2021/01/26 07:57:44;;;;;;;15.10;8.02;;;18.70;43.80;;;;;;5043510;28;20621;-65
2021/01/26 08:00:10;;;;;;;18.40;9.03;;;18.70;43.80;;;;;;5048802;28;20029;-63
2021/01/26 08:02:37;;;;;;;15.68;7.97;;;18.70;43.80;;;;;;5050037;28;20040;-63
2021/01/26 08:05:14;;;;;;;16.38;7.47;;;18.80;43.80;;;;;;5050121;28;20044;-63
2021/01/26 08:07:39;;;;;;;16.02;7.85;;;18.80;43.80;;;;;;5049564;28;20028;-63
2021/01/26 08:10:06;;;;;;;15.90;8.52;;;18.80;43.80;;;;;;5050528;28;20024;-63
2021/01/26 08:12:31;;;;;;;11.52;6.80;;;18.80;43.80;;;;;;5050204;28;20021;-62
2021/01/26 08:15:30;;;;;;;12.63;6.97;;;18.80;43.80;;;;;;5067507;28;20025;-63
2021/01/26 08:17:56;;;;;;;15.82;7.63;;;18.90;43.80;;;;;;5067193;28;20576;-66
2021/01/26 08:20:24;;;;;;;17.38;7.63;;;18.90;43.70;;;;;;5050161;28;20028;-63
2021/01/26 08:23:00;;;;;;;18.02;7.72;;;18.90;43.70;;;;;;5067313;28;20542;-63
2021/01/26 08:25:44;;;;;;;12.02;6.95;;;18.90;43.70;;;;;;5050106;28;20131;-63
2021/01/26 08:28:29;;;;;;;11.23;7.20;;;18.90;43.70;;;;;;5049495;28;20096;-62
2021/01/26 08:30:56;;;;;;;11.05;6.03;;;18.90;43.60;;;;;;5066955;28;20451;-63
2021/01/26 08:33:29;;;;;;;15.07;6.38;;;19.00;43.60;;;;;;5049661;28;20040;-62
2021/01/26 08:36:30;;;;;;;14.25;6.85;;;19.00;43.60;;;;;;5049178;28;20079;-62
2021/01/26 08:39:25;;;;;;;12.48;6.93;;;19.00;43.60;;;;;;5067241;28;20028;-63
2021/01/26 08:41:51;;;;;;;12.27;6.90;;;19.00;43.50;;;;;;5053267;28;20063;-62
2021/01/26 08:44:22;;;;;;;10.52;6.20;;;19.10;43.60;;;;;;5049593;28;20667;-63
2021/01/26 08:46:52;;;;;;;12.13;6.03;;;19.00;43.50;;;;;;5066626;28;20029;-65
2021/01/26 08:49:26;;;;;;;12.55;6.47;;;19.00;43.50;;;;;;5049619;28;20033;-63
2021/01/26 08:51:51;;;;;;;10.50;5.97;;;19.10;43.40;;;;;;5048899;28;20044;-65
2021/01/26 08:54:37;;;;;;;10.30;5.43;;;19.10;43.40;;;;;;5066490;28;20407;-65
2021/01/26 08:57:02;;;;;;;7.45;4.75;;;19.10;43.40;;;;;;5048075;28;20031;-65
2021/01/26 08:59:29;;;;;;;7.40;4.45;;;19.20;43.30;;;;;;5048864;28;20020;-65
2021/01/26 09:01:55;;;;;;;10.38;5.63;;;19.20;43.30;;;;;;5067283;28;20020;-64
2021/01/26 09:04:20;;;;;;;8.10;4.80;;;19.20;43.30;;;;;;5048786;28;20025;-64
2021/01/26 09:06:47;;;;;;;8.68;5.20;;;19.20;43.20;;;;;;5066203;28;20059;-64
2021/01/26 09:09:18;;;;;;;7.70;4.88;;;19.20;43.20;;;;;;5066394;28;20028;-65
2021/01/26 09:11:43;;;;;;;9.77;4.68;;;19.20;43.20;;;;;;5066894;28;20052;-66
2021/01/26 09:14:18;;;;;;;8.32;4.80;;;19.30;43.10;;;;;;5067075;28;20556;-65
2021/01/26 09:16:43;;;;;;;8.45;4.85;;;19.30;43.10;;;;;;5048370;28;21338;-65
2021/01/26 09:19:18;;;;;;;6.25;3.85;;;19.30;43.10;;;;;;5048790;28;20048;-65
2021/01/26 09:21:44;;;;;;;5.88;4.13;;;19.30;43.00;;;;;;5048655;28;20055;-65
2021/01/26 09:24:10;;;;;;;6.03;3.80;;;19.40;42.90;;;;;;5066893;28;20099;-65
2021/01/26 09:26:35;;;;;;;6.85;3.70;;;19.40;42.90;;;;;;5048421;28;20056;-65
2021/01/26 09:29:01;;;;;;;5.88;3.97;;;19.40;42.80;;;;;;5065740;28;20032;-64
2021/01/26 09:31:27;;;;;;;6.63;3.58;;;19.50;42.80;;;;;;5048223;28;20442;-65
2021/01/26 09:34:06;;;;;;;4.93;3.25;;;19.50;42.70;;;;;;5048211;28;20067;-65
2021/01/26 09:36:34;;;;;;;4.72;3.65;;;19.50;42.70;;;;;;5065984;28;20045;-64
2021/01/26 09:39:09;;;;;;;6.40;4.00;;;19.60;42.60;;;;;;5066126;28;20120;-65
2021/01/26 09:41:35;;;;;;;;;;;19.60;42.60;;;;;;5049065;28;20063;-65
2021/01/26 09:44:09;;;;;;;7.43;3.70;;;19.60;42.50;;;;;;5066142;28;19989;-65
2021/01/26 09:46:37;;;;;;;5.67;3.47;;;19.60;42.50;;;;;;5065943;28;20079;-65
2021/01/26 09:49:23;;;;;;;4.22;3.00;;;19.70;42.50;;;;;;5066107;28;20123;-65
2021/01/26 09:51:49;;;;;;;;;;;19.70;42.40;;;;;;5048804;28;20044;-64
2021/01/26 09:54:25;;;;;;;4.47;2.80;;;19.70;42.40;;;;;;5065993;28;19955;-66
2021/01/26 09:56:51;;;;;;;7.72;3.58;;;19.70;42.40;;;;;;5065475;28;20044;-64
2021/01/26 09:59:16;;;;;;;4.18;3.00;;;19.70;42.30;;;;;;5066101;28;20029;-65
2021/01/26 10:01:44;;;;;;;3.58;2.90;;;19.80;42.30;;;;;;5048744;28;20025;-65
2021/01/26 10:04:09;;;;;;;4.32;2.97;;;19.80;42.30;;;;;;5047384;28;20059;-65
2021/01/26 10:06:35;;;;;;;5.57;2.70;;;19.80;42.30;;;;;;5047456;28;20129;-65
2021/01/26 10:09:33;;;;;;;4.40;2.65;;;19.80;42.30;;;;;;5048043;28;20016;-66
2021/01/26 10:12:28;;;;;;;5.03;2.85;;;19.80;42.30;;;;;;5065354;28;20120;-65
2021/01/26 10:15:15;;;;;;;5.17;3.30;;;19.80;42.40;;;;;;5065514;28;20031;-65
2021/01/26 10:17:51;;;;;;;4.60;3.00;;;19.70;42.40;;;;;;5064761;28;20255;-65
2021/01/26 10:20:25;;;;;;;5.20;2.90;;;19.70;42.40;;;;;;5048991;28;20032;-66
2021/01/26 10:23:07;;;;;;;4.47;2.78;;;19.70;42.50;;;;;;5046654;28;20024;-65
2021/01/26 10:25:32;;;;;;;4.18;3.20;;;19.60;42.60;;;;;;5047466;28;20134;-64
2021/01/26 10:28:11;;;;;;;5.88;2.75;;;19.60;42.50;;;;;;5064441;28;20017;-65
2021/01/26 10:30:41;;;;;;;6.20;2.97;;;19.60;42.60;;;;;;5044110;28;20041;-65
2021/01/26 10:33:07;;;;;;;4.97;2.42;;;19.50;42.60;;;;;;5026614;28;20039;-64
2021/01/26 10:35:35;;;;;;;4.32;2.70;;;19.50;42.70;;;;;;5027377;28;20037;-64
2021/01/26 10:38:25;;;;;;;4.05;2.63;;;19.50;42.70;;;;;;5045128;28;20043;-64
2021/01/26 10:41:11;;;;;;;3.30;2.38;;;19.40;42.80;;;;;;5044799;28;20127;-64
2021/01/26 10:43:36;;;;;;;4.15;2.38;;;19.40;42.80;;;;;;5027848;28;20030;-65
2021/01/26 10:46:02;;;;;;;6.80;2.97;;;19.40;42.90;;;;;;5027098;28;20770;-64
2021/01/26 10:48:34;;;;;;;3.53;1.98;;;19.40;42.90;;;;;;5026914;28;20029;-64
2021/01/26 10:51:31;;;;;;;3.47;2.33;;;19.30;42.90;;;;;;5044552;28;20047;-64
2021/01/26 10:53:56;;;;;;;3.17;2.05;;;19.30;43.00;;;;;;5027050;28;20079;-65
2021/01/26 10:56:22;;;;;;;3.97;2.35;;;19.20;43.00;;;;;;5044784;28;20041;-64
2021/01/26 10:58:48;;;;;;;3.80;2.00;;;19.20;43.00;;;;;;5027886;28;20031;-63
2021/01/26 11:01:20;;;;;;;4.18;2.15;;;19.20;43.10;;;;;;5043801;28;20514;-63
2021/01/26 11:03:45;;;;;;;3.28;2.28;;;19.10;43.10;;;;;;5044966;28;20099;-64
2021/01/26 11:06:11;;;;;;;2.80;2.03;;;19.20;43.20;;;;;;5040158;28;20120;-64
2021/01/26 11:08:37;;;;;;;3.70;2.55;;;19.10;43.20;;;;;;5045181;28;20033;-65
2021/01/26 11:11:02;;;;;;;3.10;2.08;;;19.10;43.30;;;;;;5044659;28;20098;-64
2021/01/26 11:13:28;;;;;;;2.83;2.13;;;19.00;43.30;;;;;;5010206;28;20037;-64
2021/01/26 11:15:53;;;;;;;2.97;2.10;;;19.00;43.30;;;;;;5043828;28;20096;-64
2021/01/26 11:18:19;;;;;;;3.00;1.98;;;19.00;43.40;;;;;;5027517;28;20025;-64
2021/01/26 11:20:44;;;;;;;3.10;1.75;;;19.00;43.50;;;;;;5026672;28;20181;-64
2021/01/26 11:23:10;;;;;;;3.42;2.35;;;18.90;43.50;;;;;;5044422;28;20593;-65
2021/01/26 11:25:37;;;;;;;3.70;2.33;;;18.90;43.50;;;;;;5044278;28;20053;-64
2021/01/26 11:28:04;;;;;;;2.10;1.70;;;18.90;43.50;;;;;;5044366;28;20108;-65
2021/01/26 11:30:30;;;;;;;3.33;1.80;;;18.90;43.50;;;;;;5009719;28;20037;-65
2021/01/26 11:32:56;;;;;;;3.22;1.75;;;18.80;43.50;;;;;;5046013;28;20104;-65
2021/01/26 11:35:23;;;;;;;3.35;2.00;;;18.90;43.50;;;;;;5049412;28;20045;-64
2021/01/26 11:37:49;;;;;;;3.13;2.10;;;18.90;43.50;;;;;;5049078;28;20039;-65
2021/01/26 11:40:15;;;;;;;2.00;1.67;;;18.90;43.40;;;;;;5048766;28;20040;-65
2021/01/26 11:42:40;;;;;;;2.83;1.80;;;18.90;43.40;;;;;;5048503;28;20115;-65
2021/01/26 11:45:07;;;;;;;3.00;2.15;;;18.90;43.30;;;;;;5047790;28;20524;-63
2021/01/26 11:47:33;;;;;;;3.88;2.00;;;18.90;43.30;;;;;;5030184;28;20033;-65
2021/01/26 11:50:00;;;;;;;3.10;2.00;;;18.90;43.30;;;;;;5048063;28;20031;-65
2021/01/26 11:52:25;;;;;;;4.30;2.58;;;18.90;43.30;;;;;;5048179;28;20098;-65
2021/01/26 11:54:51;;;;;;;2.22;1.50;;;18.90;43.40;;;;;;5048390;28;20044;-66
2021/01/26 11:57:16;;;;;;;2.35;1.55;;;18.80;43.30;;;;;;5047975;28;20037;-65
2021/01/26 11:59:42;;;;;;;3.92;1.90;;;18.80;43.40;;;;;;5047403;28;20029;-65
2021/01/26 12:02:07;;;;;;;2.67;1.65;;;18.80;43.40;;;;;;5047108;28;20588;-65
2021/01/26 12:04:33;;;;;;;2.03;1.70;;;18.80;43.50;;;;;;5047511;28;20449;-64
2021/01/26 12:06:58;;;;;;;2.75;1.75;;;18.80;43.50;;;;;;5047196;28;20499;-65
2021/01/26 12:09:24;;;;;;;2.47;1.52;;;18.70;43.50;;;;;;5047768;28;20021;-65
2021/01/26 12:11:49;;;;;;;2.65;1.52;;;18.80;43.50;;;;;;5049444;28;20060;-65
2021/01/26 12:14:15;;;;;;;2.10;1.55;;;18.70;43.50;;;;;;5067121;28;20503;-64
2021/01/26 12:16:40;;;;;;;2.33;1.48;;;18.70;43.50;;;;;;5067440;28;20024;-64
2021/01/26 12:19:06;;;;;;;1.90;1.52;;;18.70;43.50;;;;;;5068027;28;20032;-62
2021/01/26 12:21:31;;;;;;;1.83;1.48;;;18.70;43.60;;;;;;5067733;28;20025;-64
2021/01/26 12:23:57;;;;;;;1.27;1.10;;;18.70;43.60;;;;;;5067562;28;20027;-65
2021/01/26 12:26:22;;;;;;;2.20;1.30;;;18.70;43.60;;;;;;5068082;28;20036;-64
2021/01/26 12:28:48;;;;;;;2.63;1.55;;;18.70;43.60;;;;;;5067420;28;20035;-65
2021/01/26 12:31:13;;;;;;;2.17;1.60;;;18.70;43.60;;;;;;5067530;28;20031;-64
2021/01/26 12:33:39;;;;;;;2.35;1.77;;;18.70;43.60;;;;;;5067254;28;20657;-65
2021/01/26 12:36:05;;;;;;;2.72;1.77;;;18.70;43.60;;;;;;5067362;28;20036;-65
2021/01/26 12:38:31;;;;;;;1.95;1.70;;;18.70;43.60;;;;;;5067112;28;20102;-65
2021/01/26 12:40:56;;;;;;;1.98;1.75;;;18.70;43.60;;;;;;5067717;28;20052;-64
2021/01/26 12:43:22;;;;;;;3.42;1.80;;;18.70;43.60;;;;;;5067027;28;20101;-65
2021/01/26 12:45:48;;;;;;;3.35;1.33;;;18.70;43.60;;;;;;5065615;28;20048;-65
2021/01/26 12:48:13;;;;;;;2.00;1.40;;;18.70;43.60;;;;;;5066478;28;20461;-64
2021/01/26 12:50:41;;;;;;;2.05;1.50;;;18.70;43.60;;;;;;5066895;28;20043;-64
2021/01/26 12:53:06;;;;;;;2.20;1.63;;;18.70;43.60;;;;;;5066168;28;20517;-65
2021/01/26 12:55:32;;;;;;;1.80;1.52;;;18.70;43.60;;;;;;5066601;28;20041;-64
2021/01/26 12:57:57;;;;;;;2.38;1.67;;;18.70;43.60;;;;;;5066379;28;20031;-65
2021/01/26 13:00:23;;;;;;;1.35;1.20;;;18.70;43.70;;;;;;5066894;28;20024;-64
2021/01/26 13:02:49;;;;;;;1.77;1.33;;;18.70;43.50;;;;;;5066759;28;20114;-63
2021/01/26 13:05:15;;;;;;;2.78;1.42;;;18.70;43.40;;;;;;5032407;28;20060;-65
2021/01/26 13:07:40;;;;;;;2.63;1.30;;;18.70;43.40;;;;;;5066295;28;20025;-65
2021/01/26 13:10:06;;;;;;;2.00;1.50;;;18.70;43.40;;;;;;5066508;28;20029;-65
2021/01/26 13:12:32;;;;;;;1.92;1.80;;;18.70;43.30;;;;;;5065823;28;20025;-62